Main page
METAR-TAF:

METAR-TAF

Airports :

Harbin Taiping International Airport

Harbin, China

latitude: 45-45N, longitude: 126-46E, elevation: 143 m

Current weather observation

The report was made 15 minutes ago, at 09:00 UTC
Wind 4 kt from the East/Southeast
Temperature -1°C
Humidity 93%
Pressure 1019 hPa
Visibility: 3000 m
Overcast at a height of 2000 ft
mist

METAR: ZYHB 210900Z 11002MPS 3000 BR OVC020 M01/M02 Q1019 NOSIG

Time: 17:15 (09:15 UTC)

Forecast

The report was made 6 hours and 8 minutes ago, at 03:07 UTC
Forecast valid from 21 at 06 UTC to 22 at 06 UTC
Wind 8 kt from the Southeast
Visibility: 3000 m
Broken clouds at a height of 2000 ft
light snow
Temporary
from 21 at 06 UTC to 21 at 08 UTC
Visibility: 2000 m
light snow, rain
Temporary
from 21 at 15 UTC to 21 at 21 UTC
Visibility: 0600 m
snow, freezing fog

TAF: ZYHB 210307Z 2106/2206 14004MPS 3000 -SN BKN020 TXM01/2106Z TNM09/2122Z TEMPO 2106/2108 2000 -SNRA TEMPO 2115/2121 0600 SN FZFG

Weather observations and forecasts of more than 4000 airports (METAR and TAF reports).

The available stations are represented by yellow and red dots on the map.

Hover mouse over dot to see the name of the station.

Then click to see weather observations and forecasts.

To change the map : click on the green buttons with a black cross to zoom in, on the green button with a dash to zoom out, or on the green arrows for adjacent maps.


METAR-TAF: